sensor_id;sensor_type;location;lat;lon;timestamp;pressure;altitude;pressure_sealevel;temperature
70123;BMP280;57489;37.404;24.920;2022-10-31T00:00:30;100516.50;;;22.23
70123;BMP280;57489;37.404;24.920;2022-10-31T00:05:30;100521.63;;;22.16
70123;BMP280;57489;37.404;24.920;2022-10-31T00:10:31;100516.41;;;22.19
70123;BMP280;57489;37.404;24.920;2022-10-31T00:15:41;100523.97;;;22.17
70123;BMP280;57489;37.404;24.920;2022-10-31T00:20:42;100517.69;;;22.13
70123;BMP280;57489;37.404;24.920;2022-10-31T00:25:42;100516.13;;;22.12
70123;BMP280;57489;37.404;24.920;2022-10-31T00:30:43;100518.34;;;22.10
70123;BMP280;57489;37.404;24.920;2022-10-31T00:35:49;100519.47;;;22.09
70123;BMP280;57489;37.404;24.920;2022-10-31T00:40:50;100509.09;;;22.08
70123;BMP280;57489;37.404;24.920;2022-10-31T00:45:50;100509.09;;;22.08
70123;BMP280;57489;37.404;24.920;2022-10-31T00:50:51;100510.69;;;22.09
70123;BMP280;57489;37.404;24.920;2022-10-31T00:55:51;100506.41;;;22.08
70123;BMP280;57489;37.404;24.920;2022-10-31T01:00:52;100502.03;;;22.03
70123;BMP280;57489;37.404;24.920;2022-10-31T01:06:00;100499.84;;;22.05
70123;BMP280;57489;37.404;24.920;2022-10-31T01:11:14;100487.44;;;22.00
70123;BMP280;57489;37.404;24.920;2022-10-31T01:16:18;100495.13;;;22.02
70123;BMP280;57489;37.404;24.920;2022-10-31T01:21:21;100488.88;;;21.98
70123;BMP280;57489;37.404;24.920;2022-10-31T01:26:26;100484.00;;;22.00
70123;BMP280;57489;37.404;24.920;2022-10-31T01:31:29;100480.41;;;21.96
70123;BMP280;57489;37.404;24.920;2022-10-31T01:36:35;100479.97;;;21.94
70123;BMP280;57489;37.404;24.920;2022-10-31T01:41:39;100477.72;;;21.96
70123;BMP280;57489;37.404;24.920;2022-10-31T01:51:55;100472.28;;;21.92
70123;BMP280;57489;37.404;24.920;2022-10-31T01:56:59;100468.81;;;21.92
70123;BMP280;57489;37.404;24.920;2022-10-31T02:02:00;100457.31;;;21.91
70123;BMP280;57489;37.404;24.920;2022-10-31T02:07:05;100458.13;;;21.92
70123;BMP280;57489;37.404;24.920;2022-10-31T02:12:09;100454.22;;;21.89
70123;BMP280;57489;37.404;24.920;2022-10-31T02:17:10;100456.91;;;21.89
70123;BMP280;57489;37.404;24.920;2022-10-31T02:22:23;100457.47;;;21.95
70123;BMP280;57489;37.404;24.920;2022-10-31T02:38:28;100460.81;;;21.92
70123;BMP280;57489;37.404;24.920;2022-10-31T02:43:52;100467.22;;;21.91
70123;BMP280;57489;37.404;24.920;2022-10-31T02:48:57;100472.13;;;21.89
70123;BMP280;57489;37.404;24.920;2022-10-31T02:54:00;100476.69;;;21.88
70123;BMP280;57489;37.404;24.920;2022-10-31T02:59:03;100469.47;;;21.89
70123;BMP280;57489;37.404;24.920;2022-10-31T03:09:34;100474.03;;;21.88
70123;BMP280;57489;37.404;24.920;2022-10-31T03:20:06;100463.22;;;21.85
70123;BMP280;57489;37.404;24.920;2022-10-31T03:25:08;100462.56;;;21.88
70123;BMP280;57489;37.404;24.920;2022-10-31T03:30:10;100460.19;;;21.86
70123;BMP280;57489;37.404;24.920;2022-10-31T03:35:13;100461.00;;;21.87
70123;BMP280;57489;37.404;24.920;2022-10-31T03:40:16;100461.00;;;21.87
70123;BMP280;57489;37.404;24.920;2022-10-31T03:45:24;100467.44;;;21.86
70123;BMP280;57489;37.404;24.920;2022-10-31T03:50:28;100461.63;;;21.84
70123;BMP280;57489;37.404;24.920;2022-10-31T03:55:42;100462.97;;;21.77
70123;BMP280;57489;37.404;24.920;2022-10-31T04:00:45;100471.41;;;21.80
70123;BMP280;57489;37.404;24.920;2022-10-31T04:05:48;100470.59;;;21.79
70123;BMP280;57489;37.404;24.920;2022-10-31T04:10:51;100461.38;;;21.76
70123;BMP280;57489;37.404;24.920;2022-10-31T04:15:54;100477.41;;;21.76
70123;BMP280;57489;37.404;24.920;2022-10-31T04:21:06;100487.28;;;21.76
70123;BMP280;57489;37.404;24.920;2022-10-31T04:26:09;100485.41;;;21.76
70123;BMP280;57489;37.404;24.920;2022-10-31T04:31:11;100489.50;;;21.74
70123;BMP280;57489;37.404;24.920;2022-10-31T04:36:12;100496.09;;;21.76
70123;BMP280;57489;37.404;24.920;2022-10-31T04:41:12;100493.41;;;21.76
70123;BMP280;57489;37.404;24.920;2022-10-31T04:46:13;100500.97;;;21.74
70123;BMP280;57489;37.404;24.920;2022-10-31T04:51:13;100498.16;;;21.71
70123;BMP280;57489;37.404;24.920;2022-10-31T04:56:14;100500.72;;;21.67
70123;BMP280;57489;37.404;24.920;2022-10-31T05:01:14;100505.25;;;21.67
70123;BMP280;57489;37.404;24.920;2022-10-31T05:06:15;100508.41;;;21.69
70123;BMP280;57489;37.404;24.920;2022-10-31T05:11:15;100516.09;;;21.70
70123;BMP280;57489;37.404;24.920;2022-10-31T05:16:16;100511.53;;;21.71
70123;BMP280;57489;37.404;24.920;2022-10-31T05:21:16;100517.00;;;21.74
70123;BMP280;57489;37.404;24.920;2022-10-31T05:26:17;100522.25;;;21.92
70123;BMP280;57489;37.404;24.920;2022-10-31T05:31:17;100523.22;;;22.08
70123;BMP280;57489;37.404;24.920;2022-10-31T05:36:18;100529.31;;;22.17
70123;BMP280;57489;37.404;24.920;2022-10-31T05:41:20;100542.53;;;22.35
70123;BMP280;57489;37.404;24.920;2022-10-31T05:46:20;100540.25;;;22.45
70123;BMP280;57489;37.404;24.920;2022-10-31T05:51:21;100551.28;;;22.44
70123;BMP280;57489;37.404;24.920;2022-10-31T05:56:21;100558.00;;;22.50
70123;BMP280;57489;37.404;24.920;2022-10-31T06:01:22;100553.78;;;22.61
70123;BMP280;57489;37.404;24.920;2022-10-31T06:06:22;100545.56;;;22.66
70123;BMP280;57489;37.404;24.920;2022-10-31T06:11:23;100548.50;;;22.73
70123;BMP280;57489;37.404;24.920;2022-10-31T06:16:23;100552.88;;;22.78
70123;BMP280;57489;37.404;24.920;2022-10-31T06:21:24;100556.69;;;22.89
70123;BMP280;57489;37.404;24.920;2022-10-31T06:26:25;100565.59;;;22.93
70123;BMP280;57489;37.404;24.920;2022-10-31T06:31:25;100561.72;;;23.03
70123;BMP280;57489;37.404;24.920;2022-10-31T06:36:26;100564.66;;;23.10
70123;BMP280;57489;37.404;24.920;2022-10-31T06:41:26;100566.03;;;23.28
70123;BMP280;57489;37.404;24.920;2022-10-31T06:46:26;100574.50;;;23.30
70123;BMP280;57489;37.404;24.920;2022-10-31T06:51:27;100565.34;;;23.31
70123;BMP280;57489;37.404;24.920;2022-10-31T06:56:27;100582.34;;;23.35
70123;BMP280;57489;37.404;24.920;2022-10-31T07:01:28;100575.81;;;23.36
70123;BMP280;57489;37.404;24.920;2022-10-31T07:06:28;100574.31;;;23.35
70123;BMP280;57489;37.404;24.920;2022-10-31T07:11:29;100584.78;;;23.40
70123;BMP280;57489;37.404;24.920;2022-10-31T07:16:29;100578.28;;;23.41
70123;BMP280;57489;37.404;24.920;2022-10-31T07:21:29;100581.78;;;23.42
70123;BMP280;57489;37.404;24.920;2022-10-31T07:26:30;100588.16;;;23.50
70123;BMP280;57489;37.404;24.920;2022-10-31T07:31:30;100583.66;;;23.54
70123;BMP280;57489;37.404;24.920;2022-10-31T07:36:31;100572.97;;;23.66
70123;BMP280;57489;37.404;24.920;2022-10-31T07:41:31;100577.28;;;23.71
70123;BMP280;57489;37.404;24.920;2022-10-31T07:46:32;100587.47;;;23.77
70123;BMP280;57489;37.404;24.920;2022-10-31T07:51:32;100592.16;;;23.80
70123;BMP280;57489;37.404;24.920;2022-10-31T07:56:33;100591.72;;;23.90
70123;BMP280;57489;37.404;24.920;2022-10-31T08:01:33;100588.78;;;23.95
70123;BMP280;57489;37.404;24.920;2022-10-31T08:06:33;100595.72;;;23.96
70123;BMP280;57489;37.404;24.920;2022-10-31T08:11:34;100597.06;;;24.03
70123;BMP280;57489;37.404;24.920;2022-10-31T08:16:34;100597.69;;;24.12
70123;BMP280;57489;37.404;24.920;2022-10-31T08:21:35;100593.22;;;24.16
70123;BMP280;57489;37.404;24.920;2022-10-31T08:26:35;100599.31;;;24.29
70123;BMP280;57489;37.404;24.920;2022-10-31T08:31:36;100597.81;;;24.43
70123;BMP280;57489;37.404;24.920;2022-10-31T08:36:36;100600.56;;;24.31
70123;BMP280;57489;37.404;24.920;2022-10-31T08:41:37;100595.91;;;24.56
70123;BMP280;57489;37.404;24.920;2022-10-31T08:46:37;100588.75;;;24.48
70123;BMP280;57489;37.404;24.920;2022-10-31T08:51:38;100591.47;;;24.64
70123;BMP280;57489;37.404;24.920;2022-10-31T08:56:38;100591.47;;;24.64
70123;BMP280;57489;37.404;24.920;2022-10-31T09:01:39;100594.72;;;24.69
70123;BMP280;57489;37.404;24.920;2022-10-31T09:06:39;100580.28;;;24.74
70123;BMP280;57489;37.404;24.920;2022-10-31T09:11:39;100579.75;;;24.84
70123;BMP280;57489;37.404;24.920;2022-10-31T09:16:40;100585.72;;;24.77
70123;BMP280;57489;37.404;24.920;2022-10-31T09:21:40;100577.69;;;24.93
70123;BMP280;57489;37.404;24.920;2022-10-31T09:26:41;100573.78;;;24.91
70123;BMP280;57489;37.404;24.920;2022-10-31T09:31:41;100570.50;;;25.13
70123;BMP280;57489;37.404;24.920;2022-10-31T09:36:42;100567.72;;;25.10
70123;BMP280;57489;37.404;24.920;2022-10-31T09:47:18;100557.25;;;25.20
70123;BMP280;57489;37.404;24.920;2022-10-31T09:52:28;100558.47;;;25.23
70123;BMP280;57489;37.404;24.920;2022-10-31T09:57:33;100552.22;;;25.19
70123;BMP280;57489;37.404;24.920;2022-10-31T10:02:41;100557.66;;;25.38
70123;BMP280;57489;37.404;24.920;2022-10-31T10:08:01;100549.69;;;25.42
70123;BMP280;57489;37.404;24.920;2022-10-31T10:23:53;100547.75;;;25.58
70123;BMP280;57489;37.404;24.920;2022-10-31T10:29:00;100544.72;;;25.79
70123;BMP280;57489;37.404;24.920;2022-10-31T10:34:39;100550.09;;;25.98
70123;BMP280;57489;37.404;24.920;2022-10-31T10:39:41;100546.38;;;25.48
70123;BMP280;57489;37.404;24.920;2022-10-31T10:44:47;100540.97;;;24.97
70123;BMP280;57489;37.404;24.920;2022-10-31T10:49:51;100542.06;;;24.96
70123;BMP280;57489;37.404;24.920;2022-10-31T11:05:49;100530.72;;;24.87
70123;BMP280;57489;37.404;24.920;2022-10-31T11:11:06;100529.88;;;24.83
70123;BMP280;57489;37.404;24.920;2022-10-31T11:16:11;100528.13;;;24.75
70123;BMP280;57489;37.404;24.920;2022-10-31T11:21:28;100511.81;;;24.68
70123;BMP280;57489;37.404;24.920;2022-10-31T11:26:29;100514.34;;;24.61
70123;BMP280;57489;37.404;24.920;2022-10-31T11:31:29;100516.34;;;24.64
70123;BMP280;57489;37.404;24.920;2022-10-31T11:36:37;100515.84;;;24.74
70123;BMP280;57489;37.404;24.920;2022-10-31T11:41:38;100506.16;;;24.85
70123;BMP280;57489;37.404;24.920;2022-10-31T11:46:48;100508.81;;;24.85
70123;BMP280;57489;37.404;24.920;2022-10-31T11:51:53;100498.78;;;24.98
70123;BMP280;57489;37.404;24.920;2022-10-31T11:56:55;100500.78;;;24.85
70123;BMP280;57489;37.404;24.920;2022-10-31T12:01:58;100498.59;;;25.06
70123;BMP280;57489;37.404;24.920;2022-10-31T12:06:59;100498.19;;;25.04
70123;BMP280;57489;37.404;24.920;2022-10-31T12:17:36;100501.91;;;25.00
70123;BMP280;57489;37.404;24.920;2022-10-31T12:23:18;100499.13;;;24.96
70123;BMP280;57489;37.404;24.920;2022-10-31T12:28:41;100501.63;;;24.89
70123;BMP280;57489;37.404;24.920;2022-10-31T12:44:44;100503.44;;;24.54
70123;BMP280;57489;37.404;24.920;2022-10-31T13:00:17;100508.56;;;24.31
70123;BMP280;57489;37.404;24.920;2022-10-31T13:05:27;100517.22;;;24.24
70123;BMP280;57489;37.404;24.920;2022-10-31T13:15:48;100515.88;;;24.18
70123;BMP280;57489;37.404;24.920;2022-10-31T13:20:50;100512.56;;;24.09
70123;BMP280;57489;37.404;24.920;2022-10-31T13:25:54;100520.16;;;24.07
70123;BMP280;57489;37.404;24.920;2022-10-31T13:30:55;100519.53;;;24.10
70123;BMP280;57489;37.404;24.920;2022-10-31T13:51:33;100518.88;;;23.88
70123;BMP280;57489;37.404;24.920;2022-10-31T13:56:34;100527.19;;;23.83
70123;BMP280;57489;37.404;24.920;2022-10-31T14:01:35;100523.38;;;23.84
70123;BMP280;57489;37.404;24.920;2022-10-31T14:11:45;100540.59;;;23.71
70123;BMP280;57489;37.404;24.920;2022-10-31T14:16:54;100536.78;;;23.72
70123;BMP280;57489;37.404;24.920;2022-10-31T14:21:55;100543.50;;;23.66
70123;BMP280;57489;37.404;24.920;2022-10-31T14:32:24;100541.94;;;23.65
70123;BMP280;57489;37.404;24.920;2022-10-31T14:53:31;100535.22;;;23.47
70123;BMP280;57489;37.404;24.920;2022-10-31T14:58:42;100528.22;;;23.42
70123;BMP280;57489;37.404;24.920;2022-10-31T15:03:46;100534.13;;;23.35
70123;BMP280;57489;37.404;24.920;2022-10-31T15:08:53;100531.66;;;23.30
70123;BMP280;57489;37.404;24.920;2022-10-31T15:13:56;100532.22;;;23.24
70123;BMP280;57489;37.404;24.920;2022-10-31T15:18:59;100535.88;;;23.19
70123;BMP280;57489;37.404;24.920;2022-10-31T15:24:01;100545.69;;;23.15
70123;BMP280;57489;37.404;24.920;2022-10-31T15:29:05;100544.81;;;23.11
70123;BMP280;57489;37.404;24.920;2022-10-31T15:34:14;100549.72;;;23.09
70123;BMP280;57489;37.404;24.920;2022-10-31T15:39:16;100555.28;;;23.04
70123;BMP280;57489;37.404;24.920;2022-10-31T15:44:29;100555.75;;;23.06
70123;BMP280;57489;37.404;24.920;2022-10-31T15:49:37;100559.84;;;23.03
70123;BMP280;57489;37.404;24.920;2022-10-31T15:54:48;100566.06;;;22.95
70123;BMP280;57489;37.404;24.920;2022-10-31T15:59:49;100564.16;;;22.96
70123;BMP280;57489;37.404;24.920;2022-10-31T16:04:58;100566.41;;;22.94
70123;BMP280;57489;37.404;24.920;2022-10-31T16:10:00;100572.19;;;22.96
70123;BMP280;57489;37.404;24.920;2022-10-31T16:15:03;100574.75;;;22.92
70123;BMP280;57489;37.404;24.920;2022-10-31T16:20:06;100587.03;;;22.93
70123;BMP280;57489;37.404;24.920;2022-10-31T16:25:12;100597.63;;;22.90
70123;BMP280;57489;37.404;24.920;2022-10-31T16:35:38;100607.53;;;22.89
70123;BMP280;57489;37.404;24.920;2022-10-31T16:40:39;100616.34;;;22.90
70123;BMP280;57489;37.404;24.920;2022-10-31T16:45:45;100615.88;;;22.88
70123;BMP280;57489;37.404;24.920;2022-10-31T16:50:46;100620.16;;;22.89
70123;BMP280;57489;37.404;24.920;2022-10-31T16:55:58;100618.09;;;22.85
70123;BMP280;57489;37.404;24.920;2022-10-31T17:00:59;100627.25;;;22.84
70123;BMP280;57489;37.404;24.920;2022-10-31T17:06:01;100622.22;;;22.83
70123;BMP280;57489;37.404;24.920;2022-10-31T17:11:01;100618.16;;;22.98
70123;BMP280;57489;37.404;24.920;2022-10-31T17:16:03;100607.44;;;23.31
70123;BMP280;57489;37.404;24.920;2022-10-31T17:21:04;100611.56;;;23.40
70123;BMP280;57489;37.404;24.920;2022-10-31T17:26:04;100623.28;;;23.48
70123;BMP280;57489;37.404;24.920;2022-10-31T17:31:05;100628.78;;;23.52
70123;BMP280;57489;37.404;24.920;2022-10-31T17:36:06;100627.69;;;23.77
70123;BMP280;57489;37.404;24.920;2022-10-31T17:41:07;100629.81;;;23.84
70123;BMP280;57489;37.404;24.920;2022-10-31T17:46:07;100633.66;;;24.11
70123;BMP280;57489;37.404;24.920;2022-10-31T17:51:08;100631.25;;;23.93
70123;BMP280;57489;37.404;24.920;2022-10-31T17:56:09;100633.16;;;23.93
70123;BMP280;57489;37.404;24.920;2022-10-31T18:01:12;100628.78;;;24.13
70123;BMP280;57489;37.404;24.920;2022-10-31T18:06:14;100625.50;;;24.07
70123;BMP280;57489;37.404;24.920;2022-10-31T18:11:16;100617.16;;;23.96
70123;BMP280;57489;37.404;24.920;2022-10-31T18:16:18;100612.03;;;23.79
70123;BMP280;57489;37.404;24.920;2022-10-31T18:21:20;100607.78;;;23.78
70123;BMP280;57489;37.404;24.920;2022-10-31T18:26:21;100616.63;;;23.79
70123;BMP280;57489;37.404;24.920;2022-10-31T18:31:22;100605.00;;;23.75
70123;BMP280;57489;37.404;24.920;2022-10-31T18:36:23;100609.91;;;23.73
70123;BMP280;57489;37.404;24.920;2022-10-31T18:41:24;100604.25;;;23.62
70123;BMP280;57489;37.404;24.920;2022-10-31T18:46:26;100609.44;;;23.83
70123;BMP280;57489;37.404;24.920;2022-10-31T18:51:27;100613.38;;;23.73
70123;BMP280;57489;37.404;24.920;2022-10-31T18:56:28;100602.63;;;23.85
70123;BMP280;57489;37.404;24.920;2022-10-31T19:01:29;100597.72;;;23.87
70123;BMP280;57489;37.404;24.920;2022-10-31T19:06:30;100606.00;;;23.82
70123;BMP280;57489;37.404;24.920;2022-10-31T19:11:31;100608.34;;;23.72
70123;BMP280;57489;37.404;24.920;2022-10-31T19:16:33;100611.91;;;23.76
70123;BMP280;57489;37.404;24.920;2022-10-31T19:21:33;100614.59;;;23.76
70123;BMP280;57489;37.404;24.920;2022-10-31T19:26:34;100626.53;;;23.78
70123;BMP280;57489;37.404;24.920;2022-10-31T19:31:34;100609.91;;;23.85
70123;BMP280;57489;37.404;24.920;2022-10-31T19:36:35;100628.34;;;23.86
70123;BMP280;57489;37.404;24.920;2022-10-31T19:41:35;100626.53;;;23.78
70123;BMP280;57489;37.404;24.920;2022-10-31T19:46:36;100623.19;;;23.93
70123;BMP280;57489;37.404;24.920;2022-10-31T19:51:36;100623.06;;;23.90
70123;BMP280;57489;37.404;24.920;2022-10-31T19:56:37;100626.53;;;23.78
70123;BMP280;57489;37.404;24.920;2022-10-31T20:01:37;100623.19;;;23.81
70123;BMP280;57489;37.404;24.920;2022-10-31T20:06:39;100628.22;;;23.83
70123;BMP280;57489;37.404;24.920;2022-10-31T20:11:42;100623.41;;;23.88
70123;BMP280;57489;37.404;24.920;2022-10-31T20:16:43;100635.59;;;23.86
70123;BMP280;57489;37.404;24.920;2022-10-31T20:21:44;100633.69;;;23.86
70123;BMP280;57489;37.404;24.920;2022-10-31T20:26:44;100643.19;;;23.96
70123;BMP280;57489;37.404;24.920;2022-10-31T20:31:46;100641.97;;;23.81
70123;BMP280;57489;37.404;24.920;2022-10-31T20:36:46;100651.56;;;23.82
70123;BMP280;57489;37.404;24.920;2022-10-31T20:41:46;100652.91;;;23.88
70123;BMP280;57489;37.404;24.920;2022-10-31T20:46:47;100660.53;;;24.39
70123;BMP280;57489;37.404;24.920;2022-10-31T20:51:47;100662.97;;;23.91
70123;BMP280;57489;37.404;24.920;2022-10-31T20:56:48;100652.03;;;23.84
70123;BMP280;57489;37.404;24.920;2022-10-31T21:01:48;100655.38;;;23.93
70123;BMP280;57489;37.404;24.920;2022-10-31T21:06:49;100648.56;;;23.84
70123;BMP280;57489;37.404;24.920;2022-10-31T21:11:49;100656.06;;;23.90
70123;BMP280;57489;37.404;24.920;2022-10-31T21:16:50;100648.63;;;24.00
70123;BMP280;57489;37.404;24.920;2022-10-31T21:21:50;100648.41;;;23.92
70123;BMP280;57489;37.404;24.920;2022-10-31T21:26:51;100646.97;;;23.83
70123;BMP280;57489;37.404;24.920;2022-10-31T21:31:51;100644.66;;;23.69
70123;BMP280;57489;37.404;24.920;2022-10-31T21:36:52;100639.72;;;23.59
70123;BMP280;57489;37.404;24.920;2022-10-31T21:41:52;100645.94;;;23.38
70123;BMP280;57489;37.404;24.920;2022-10-31T21:46:53;100648.81;;;23.33
70123;BMP280;57489;37.404;24.920;2022-10-31T21:51:53;100645.59;;;23.28
70123;BMP280;57489;37.404;24.920;2022-10-31T21:56:55;100647.91;;;23.17
70123;BMP280;57489;37.404;24.920;2022-10-31T22:01:56;100650.31;;;23.10
70123;BMP280;57489;37.404;24.920;2022-10-31T22:06:57;100635.44;;;23.00
70123;BMP280;57489;37.404;24.920;2022-10-31T22:11:57;100645.13;;;22.93
70123;BMP280;57489;37.404;24.920;2022-10-31T22:16:58;100631.28;;;22.91
70123;BMP280;57489;37.404;24.920;2022-10-31T22:21:58;100630.41;;;22.87
70123;BMP280;57489;37.404;24.920;2022-10-31T22:26:59;100632.59;;;22.84
70123;BMP280;57489;37.404;24.920;2022-10-31T22:31:59;100637.03;;;22.80
70123;BMP280;57489;37.404;24.920;2022-10-31T22:36:59;100635.03;;;22.77
70123;BMP280;57489;37.404;24.920;2022-10-31T22:42:00;100641.34;;;22.73
70123;BMP280;57489;37.404;24.920;2022-10-31T22:47:00;100649.72;;;22.71
70123;BMP280;57489;37.404;24.920;2022-10-31T22:52:01;100640.56;;;22.72
70123;BMP280;57489;37.404;24.920;2022-10-31T22:57:01;100634.78;;;22.70
70123;BMP280;57489;37.404;24.920;2022-10-31T23:02:02;100636.53;;;22.66
70123;BMP280;57489;37.404;24.920;2022-10-31T23:07:02;100628.19;;;22.68
70123;BMP280;57489;37.404;24.920;2022-10-31T23:12:03;100634.19;;;22.65
70123;BMP280;57489;37.404;24.920;2022-10-31T23:17:03;100636.25;;;22.59
70123;BMP280;57489;37.404;24.920;2022-10-31T23:22:04;100630.91;;;22.59
70123;BMP280;57489;37.404;24.920;2022-10-31T23:27:21;100627.16;;;22.60
70123;BMP280;57489;37.404;24.920;2022-10-31T23:32:23;100635.81;;;22.57
70123;BMP280;57489;37.404;24.920;2022-10-31T23:37:29;100633.78;;;22.54
70123;BMP280;57489;37.404;24.920;2022-10-31T23:42:29;100633.78;;;22.54
70123;BMP280;57489;37.404;24.920;2022-10-31T23:47:30;100625.75;;;22.54
70123;BMP280;57489;37.404;24.920;2022-10-31T23:52:30;100640.47;;;22.48
70123;BMP280;57489;37.404;24.920;2022-10-31T23:57:31;100639.78;;;22.51
